sensor_id;sensor_type;location;lat;lon;timestamp;temperature;humidity
9925;DHT22;5001;51.674;7.868;2022-09-12T00:01:17;12.50;1.00
9925;DHT22;5001;51.674;7.868;2022-09-12T00:03:45;12.40;1.00
9925;DHT22;5001;51.674;7.868;2022-09-12T00:06:17;12.40;1.00
9925;DHT22;5001;51.674;7.868;2022-09-12T00:09:08;12.30;1.00
9925;DHT22;5001;51.674;7.868;2022-09-12T00:11:41;12.30;99.90
9925;DHT22;5001;51.674;7.868;2022-09-12T00:14:11;12.20;99.90
9925;DHT22;5001;51.674;7.868;2022-09-12T00:16:39;12.20;99.90
9925;DHT22;5001;51.674;7.868;2022-09-12T00:19:07;12.10;99.90
9925;DHT22;5001;51.674;7.868;2022-09-12T00:21:36;12.10;99.90
9925;DHT22;5001;51.674;7.868;2022-09-12T00:24:04;12.10;99.90
9925;DHT22;5001;51.674;7.868;2022-09-12T00:26:31;12.10;99.90
9925;DHT22;5001;51.674;7.868;2022-09-12T00:28:58;12.00;99.90
9925;DHT22;5001;51.674;7.868;2022-09-12T00:31:26;12.00;99.90
9925;DHT22;5001;51.674;7.868;2022-09-12T00:33:56;12.00;99.90
9925;DHT22;5001;51.674;7.868;2022-09-12T00:36:24;11.90;99.90
9925;DHT22;5001;51.674;7.868;2022-09-12T00:38:51;12.00;99.90
9925;DHT22;5001;51.674;7.868;2022-09-12T00:41:28;12.00;99.90
9925;DHT22;5001;51.674;7.868;2022-09-12T00:43:58;12.00;99.90
9925;DHT22;5001;51.674;7.868;2022-09-12T00:51:28;11.90;99.90
9925;DHT22;5001;51.674;7.868;2022-09-12T00:53:57;11.90;99.90
9925;DHT22;5001;51.674;7.868;2022-09-12T00:56:26;11.90;99.90
9925;DHT22;5001;51.674;7.868;2022-09-12T00:59:02;11.90;99.90
9925;DHT22;5001;51.674;7.868;2022-09-12T01:01:30;11.90;99.90
9925;DHT22;5001;51.674;7.868;2022-09-12T01:03:59;11.80;99.90
9925;DHT22;5001;51.674;7.868;2022-09-12T01:06:32;12.00;1.00
9925;DHT22;5001;51.674;7.868;2022-09-12T01:09:02;12.20;1.00
9925;DHT22;5001;51.674;7.868;2022-09-12T01:11:35;12.40;1.00
9925;DHT22;5001;51.674;7.868;2022-09-12T01:14:05;12.90;99.90
9925;DHT22;5001;51.674;7.868;2022-09-12T01:16:35;13.20;1.00
9925;DHT22;5001;51.674;7.868;2022-09-12T01:22:25;13.00;99.90
9925;DHT22;5001;51.674;7.868;2022-09-12T01:25:07;12.90;1.00
9925;DHT22;5001;51.674;7.868;2022-09-12T01:28:08;12.60;99.90
9925;DHT22;5001;51.674;7.868;2022-09-12T01:31:20;12.60;1.00
9925;DHT22;5001;51.674;7.868;2022-09-12T01:33:31;12.70;1.00
9925;DHT22;5001;51.674;7.868;2022-09-12T01:36:31;12.80;1.00
9925;DHT22;5001;51.674;7.868;2022-09-12T01:41:46;13.30;1.00
9925;DHT22;5001;51.674;7.868;2022-09-12T01:47:20;13.20;1.00
9925;DHT22;5001;51.674;7.868;2022-09-12T01:50:07;13.20;1.00
9925;DHT22;5001;51.674;7.868;2022-09-12T01:52:48;13.00;1.00
9925;DHT22;5001;51.674;7.868;2022-09-12T01:55:28;12.90;1.00
9925;DHT22;5001;51.674;7.868;2022-09-12T01:58:12;12.70;1.00
9925;DHT22;5001;51.674;7.868;2022-09-12T02:01:00;12.90;76.90
9925;DHT22;5001;51.674;7.868;2022-09-12T02:03:40;13.00;1.00
9925;DHT22;5001;51.674;7.868;2022-09-12T02:06:24;13.00;1.00
9925;DHT22;5001;51.674;7.868;2022-09-12T02:08:56;12.90;1.00
9925;DHT22;5001;51.674;7.868;2022-09-12T02:11:24;12.90;1.00
9925;DHT22;5001;51.674;7.868;2022-09-12T02:14:22;12.70;1.00
9925;DHT22;5001;51.674;7.868;2022-09-12T02:17:14;12.70;1.00
9925;DHT22;5001;51.674;7.868;2022-09-12T02:19:53;12.60;1.00
9925;DHT22;5001;51.674;7.868;2022-09-12T02:22:24;12.50;1.00
9925;DHT22;5001;51.674;7.868;2022-09-12T02:24:56;12.50;1.00
9925;DHT22;5001;51.674;7.868;2022-09-12T02:27:42;12.50;1.00
9925;DHT22;5001;51.674;7.868;2022-09-12T02:30:10;12.50;1.00
9925;DHT22;5001;51.674;7.868;2022-09-12T02:32:50;12.50;1.00
9925;DHT22;5001;51.674;7.868;2022-09-12T02:35:51;12.40;1.00
9925;DHT22;5001;51.674;7.868;2022-09-12T02:38:43;12.10;1.00
9925;DHT22;5001;51.674;7.868;2022-09-12T02:41:14;11.80;1.00
9925;DHT22;5001;51.674;7.868;2022-09-12T02:43:43;11.70;99.90
9925;DHT22;5001;51.674;7.868;2022-09-12T02:46:17;11.90;99.90
9925;DHT22;5001;51.674;7.868;2022-09-12T02:48:46;12.10;1.00
9925;DHT22;5001;51.674;7.868;2022-09-12T02:51:13;12.40;1.00
9925;DHT22;5001;51.674;7.868;2022-09-12T02:53:41;12.50;1.00
9925;DHT22;5001;51.674;7.868;2022-09-12T02:56:13;12.50;99.90
9925;DHT22;5001;51.674;7.868;2022-09-12T02:58:42;12.40;99.90
9925;DHT22;5001;51.674;7.868;2022-09-12T03:01:46;12.50;1.00
9925;DHT22;5001;51.674;7.868;2022-09-12T03:07:40;12.00;1.00
9925;DHT22;5001;51.674;7.868;2022-09-12T03:26:57;12.70;1.00
9925;DHT22;5001;51.674;7.868;2022-09-12T03:29:28;12.90;99.90
9925;DHT22;5001;51.674;7.868;2022-09-12T03:31:57;12.90;99.90
9925;DHT22;5001;51.674;7.868;2022-09-12T03:34:26;13.00;99.90
9925;DHT22;5001;51.674;7.868;2022-09-12T03:36:54;13.10;99.90
9925;DHT22;5001;51.674;7.868;2022-09-12T03:39:22;12.80;1.00
9925;DHT22;5001;51.674;7.868;2022-09-12T03:41:50;12.40;99.90
9925;DHT22;5001;51.674;7.868;2022-09-12T03:44:18;12.30;99.90
9925;DHT22;5001;51.674;7.868;2022-09-12T03:46:45;12.30;1.00
9925;DHT22;5001;51.674;7.868;2022-09-12T03:49:13;12.40;1.00
9925;DHT22;5001;51.674;7.868;2022-09-12T03:51:40;12.30;1.00
9925;DHT22;5001;51.674;7.868;2022-09-12T03:54:09;12.50;1.00
9925;DHT22;5001;51.674;7.868;2022-09-12T03:56:36;12.70;1.00
9925;DHT22;5001;51.674;7.868;2022-09-12T03:59:04;12.90;99.90
9925;DHT22;5001;51.674;7.868;2022-09-12T04:01:32;12.70;2.60
9925;DHT22;5001;51.674;7.868;2022-09-12T04:03:59;12.50;99.90
9925;DHT22;5001;51.674;7.868;2022-09-12T04:06:26;12.60;99.90
9925;DHT22;5001;51.674;7.868;2022-09-12T04:08:54;12.60;99.90
9925;DHT22;5001;51.674;7.868;2022-09-12T04:11:22;12.80;99.90
9925;DHT22;5001;51.674;7.868;2022-09-12T04:13:49;13.00;1.00
9925;DHT22;5001;51.674;7.868;2022-09-12T04:16:17;12.80;1.00
9925;DHT22;5001;51.674;7.868;2022-09-12T04:18:45;12.70;99.90
9925;DHT22;5001;51.674;7.868;2022-09-12T04:21:15;12.50;99.90
9925;DHT22;5001;51.674;7.868;2022-09-12T04:23:43;12.20;99.90
9925;DHT22;5001;51.674;7.868;2022-09-12T04:26:13;12.10;1.00
9925;DHT22;5001;51.674;7.868;2022-09-12T04:28:41;11.90;1.00
9925;DHT22;5001;51.674;7.868;2022-09-12T04:31:11;11.80;99.90
9925;DHT22;5001;51.674;7.868;2022-09-12T04:33:39;11.80;99.90
9925;DHT22;5001;51.674;7.868;2022-09-12T04:36:11;12.00;98.80
9925;DHT22;5001;51.674;7.868;2022-09-12T04:38:40;11.80;1.00
9925;DHT22;5001;51.674;7.868;2022-09-12T04:41:24;11.50;99.90
9925;DHT22;5001;51.674;7.868;2022-09-12T04:43:53;11.30;1.00
9925;DHT22;5001;51.674;7.868;2022-09-12T04:46:21;11.10;1.00
9925;DHT22;5001;51.674;7.868;2022-09-12T04:48:48;11.00;1.00
9925;DHT22;5001;51.674;7.868;2022-09-12T04:51:22;11.00;99.90
9925;DHT22;5001;51.674;7.868;2022-09-12T04:53:53;10.90;99.90
9925;DHT22;5001;51.674;7.868;2022-09-12T04:56:21;10.90;1.00
9925;DHT22;5001;51.674;7.868;2022-09-12T04:58:48;11.50;99.90
9925;DHT22;5001;51.674;7.868;2022-09-12T05:01:18;12.00;1.00
9925;DHT22;5001;51.674;7.868;2022-09-12T05:03:46;12.10;1.00
9925;DHT22;5001;51.674;7.868;2022-09-12T05:06:17;12.30;99.90
9925;DHT22;5001;51.674;7.868;2022-09-12T05:08:45;12.50;1.00
9925;DHT22;5001;51.674;7.868;2022-09-12T05:11:15;12.70;1.00
9925;DHT22;5001;51.674;7.868;2022-09-12T05:13:46;12.80;99.90
9925;DHT22;5001;51.674;7.868;2022-09-12T05:16:15;12.80;1.00
9925;DHT22;5001;51.674;7.868;2022-09-12T05:18:43;12.80;1.00
9925;DHT22;5001;51.674;7.868;2022-09-12T05:21:13;13.00;1.00
9925;DHT22;5001;51.674;7.868;2022-09-12T05:23:41;13.10;1.00
9925;DHT22;5001;51.674;7.868;2022-09-12T05:26:11;13.10;1.00
9925;DHT22;5001;51.674;7.868;2022-09-12T05:28:39;13.30;1.00
9925;DHT22;5001;51.674;7.868;2022-09-12T05:31:09;13.30;1.00
9925;DHT22;5001;51.674;7.868;2022-09-12T05:33:38;13.30;1.00
9925;DHT22;5001;51.674;7.868;2022-09-12T05:36:06;13.30;1.00
9925;DHT22;5001;51.674;7.868;2022-09-12T05:38:36;13.00;1.00
9925;DHT22;5001;51.674;7.868;2022-09-12T05:41:07;12.90;1.00
9925;DHT22;5001;51.674;7.868;2022-09-12T05:43:41;13.10;1.00
9925;DHT22;5001;51.674;7.868;2022-09-12T05:46:14;13.30;1.00
9925;DHT22;5001;51.674;7.868;2022-09-12T05:48:43;13.50;1.00
9925;DHT22;5001;51.674;7.868;2022-09-12T05:51:13;13.70;99.90
9925;DHT22;5001;51.674;7.868;2022-09-12T05:53:51;14.00;99.90
9925;DHT22;5001;51.674;7.868;2022-09-12T05:56:20;15.30;1.00
9925;DHT22;5001;51.674;7.868;2022-09-12T05:58:57;16.90;99.90
9925;DHT22;5001;51.674;7.868;2022-09-12T06:01:25;17.70;99.90
9925;DHT22;5001;51.674;7.868;2022-09-12T06:03:55;18.20;99.90
9925;DHT22;5001;51.674;7.868;2022-09-12T06:06:23;18.80;99.90
9925;DHT22;5001;51.674;7.868;2022-09-12T06:08:52;19.60;80.80
9925;DHT22;5001;51.674;7.868;2022-09-12T06:11:22;20.40;23.30
9925;DHT22;5001;51.674;7.868;2022-09-12T06:13:49;20.50;1.00
9925;DHT22;5001;51.674;7.868;2022-09-12T06:16:19;19.60;7.30
9925;DHT22;5001;51.674;7.868;2022-09-12T06:18:48;20.10;1.00
9925;DHT22;5001;51.674;7.868;2022-09-12T06:21:16;20.70;1.00
9925;DHT22;5001;51.674;7.868;2022-09-12T06:23:43;21.10;1.00
9925;DHT22;5001;51.674;7.868;2022-09-12T06:26:12;21.60;1.00
9925;DHT22;5001;51.674;7.868;2022-09-12T06:28:41;21.70;1.00
9925;DHT22;5001;51.674;7.868;2022-09-12T06:31:14;22.20;1.00
9925;DHT22;5001;51.674;7.868;2022-09-12T06:33:45;22.00;1.00
9925;DHT22;5001;51.674;7.868;2022-09-12T06:36:14;22.20;1.00
9925;DHT22;5001;51.674;7.868;2022-09-12T06:38:42;23.60;1.00
9925;DHT22;5001;51.674;7.868;2022-09-12T06:41:10;23.80;1.00
9925;DHT22;5001;51.674;7.868;2022-09-12T06:43:39;24.50;1.00
9925;DHT22;5001;51.674;7.868;2022-09-12T06:46:07;24.90;1.00
9925;DHT22;5001;51.674;7.868;2022-09-12T06:48:35;26.30;1.00
9925;DHT22;5001;51.674;7.868;2022-09-12T06:51:15;26.30;1.00
9925;DHT22;5001;51.674;7.868;2022-09-12T06:53:44;26.10;1.00
9925;DHT22;5001;51.674;7.868;2022-09-12T06:56:14;26.20;1.00
9925;DHT22;5001;51.674;7.868;2022-09-12T06:58:42;26.50;1.00
9925;DHT22;5001;51.674;7.868;2022-09-12T07:03:41;28.10;1.00
9925;DHT22;5001;51.674;7.868;2022-09-12T07:06:10;27.50;1.00
9925;DHT22;5001;51.674;7.868;2022-09-12T07:08:39;26.30;1.00
9925;DHT22;5001;51.674;7.868;2022-09-12T07:13:39;26.60;1.00
9925;DHT22;5001;51.674;7.868;2022-09-12T07:16:06;26.50;1.00
9925;DHT22;5001;51.674;7.868;2022-09-12T07:18:33;27.50;1.00
9925;DHT22;5001;51.674;7.868;2022-09-12T07:21:01;29.10;1.00
9925;DHT22;5001;51.674;7.868;2022-09-12T07:23:29;29.80;1.00
9925;DHT22;5001;51.674;7.868;2022-09-12T07:25:58;30.40;1.00
9925;DHT22;5001;51.674;7.868;2022-09-12T07:28:28;30.10;1.00
9925;DHT22;5001;51.674;7.868;2022-09-12T07:30:55;26.70;1.00
9925;DHT22;5001;51.674;7.868;2022-09-12T07:33:27;23.90;1.00
9925;DHT22;5001;51.674;7.868;2022-09-12T07:35:54;22.00;1.00
9925;DHT22;5001;51.674;7.868;2022-09-12T07:38:21;22.00;1.00
9925;DHT22;5001;51.674;7.868;2022-09-12T07:40:48;22.00;1.00
9925;DHT22;5001;51.674;7.868;2022-09-12T07:43:15;22.20;1.00
9925;DHT22;5001;51.674;7.868;2022-09-12T07:45:42;22.20;1.00
9925;DHT22;5001;51.674;7.868;2022-09-12T07:48:09;22.70;1.00
9925;DHT22;5001;51.674;7.868;2022-09-12T07:50:36;22.20;1.00
9925;DHT22;5001;51.674;7.868;2022-09-12T07:53:08;22.30;1.00
9925;DHT22;5001;51.674;7.868;2022-09-12T07:55:35;23.80;1.00
9925;DHT22;5001;51.674;7.868;2022-09-12T07:58:02;23.60;1.00
9925;DHT22;5001;51.674;7.868;2022-09-12T08:00:30;22.40;1.00
9925;DHT22;5001;51.674;7.868;2022-09-12T08:03:01;21.80;1.00
9925;DHT22;5001;51.674;7.868;2022-09-12T08:05:29;21.40;5.80
9925;DHT22;5001;51.674;7.868;2022-09-12T08:07:56;20.90;36.00
9925;DHT22;5001;51.674;7.868;2022-09-12T08:10:23;20.80;65.90
9925;DHT22;5001;51.674;7.868;2022-09-12T08:12:50;20.20;98.60
9925;DHT22;5001;51.674;7.868;2022-09-12T08:15:17;19.40;99.90
9925;DHT22;5001;51.674;7.868;2022-09-12T08:17:45;19.50;99.90
9925;DHT22;5001;51.674;7.868;2022-09-12T08:20:12;19.00;99.90
9925;DHT22;5001;51.674;7.868;2022-09-12T08:22:39;18.90;99.90
9925;DHT22;5001;51.674;7.868;2022-09-12T08:25:06;18.90;99.90
9925;DHT22;5001;51.674;7.868;2022-09-12T08:27:34;19.40;99.90
9925;DHT22;5001;51.674;7.868;2022-09-12T08:30:01;19.50;99.90
9925;DHT22;5001;51.674;7.868;2022-09-12T08:32:28;19.70;99.90
9925;DHT22;5001;51.674;7.868;2022-09-12T08:34:55;20.10;99.90
9925;DHT22;5001;51.674;7.868;2022-09-12T08:37:22;19.90;99.90
9925;DHT22;5001;51.674;7.868;2022-09-12T08:39:49;20.10;99.90
9925;DHT22;5001;51.674;7.868;2022-09-12T08:42:32;19.70;99.90
9925;DHT22;5001;51.674;7.868;2022-09-12T08:45:16;20.40;99.90
9925;DHT22;5001;51.674;7.868;2022-09-12T08:47:46;21.20;99.90
9925;DHT22;5001;51.674;7.868;2022-09-12T08:50:17;21.20;98.00
9925;DHT22;5001;51.674;7.868;2022-09-12T08:53:00;21.10;99.90
9925;DHT22;5001;51.674;7.868;2022-09-12T08:56:04;21.70;87.10
9925;DHT22;5001;51.674;7.868;2022-09-12T08:58:39;21.80;74.60
9925;DHT22;5001;51.674;7.868;2022-09-12T09:12:23;22.30;19.40
9925;DHT22;5001;51.674;7.868;2022-09-12T09:15:20;22.40;32.30
9925;DHT22;5001;51.674;7.868;2022-09-12T09:18:03;22.20;45.70
9925;DHT22;5001;51.674;7.868;2022-09-12T09:20:56;22.20;55.30
9925;DHT22;5001;51.674;7.868;2022-09-12T09:23:26;21.60;99.90
9925;DHT22;5001;51.674;7.868;2022-09-12T09:26:16;21.10;99.90
9925;DHT22;5001;51.674;7.868;2022-09-12T09:28:50;20.60;99.90
9925;DHT22;5001;51.674;7.868;2022-09-12T09:31:21;21.40;99.90
9925;DHT22;5001;51.674;7.868;2022-09-12T09:33:51;23.20;61.20
9925;DHT22;5001;51.674;7.868;2022-09-12T09:40:15;26.10;1.00
9925;DHT22;5001;51.674;7.868;2022-09-12T09:45:02;27.80;1.00
9925;DHT22;5001;51.674;7.868;2022-09-12T09:47:36;27.20;1.00
9925;DHT22;5001;51.674;7.868;2022-09-12T09:50:04;27.70;1.00
9925;DHT22;5001;51.674;7.868;2022-09-12T09:52:32;27.50;1.00
9925;DHT22;5001;51.674;7.868;2022-09-12T09:55:01;28.60;1.00
9925;DHT22;5001;51.674;7.868;2022-09-12T09:57:46;29.00;1.00
9925;DHT22;5001;51.674;7.868;2022-09-12T10:00:34;27.80;1.00
9925;DHT22;5001;51.674;7.868;2022-09-12T10:05:49;26.80;1.00
9925;DHT22;5001;51.674;7.868;2022-09-12T10:08:27;26.20;1.00
9925;DHT22;5001;51.674;7.868;2022-09-12T10:11:01;25.50;1.00
9925;DHT22;5001;51.674;7.868;2022-09-12T10:15:59;27.50;1.00
9925;DHT22;5001;51.674;7.868;2022-09-12T10:18:40;28.10;1.00
9925;DHT22;5001;51.674;7.868;2022-09-12T10:21:38;29.70;1.00
9925;DHT22;5001;51.674;7.868;2022-09-12T10:26:54;30.10;1.00
9925;DHT22;5001;51.674;7.868;2022-09-12T10:29:31;33.70;1.00
9925;DHT22;5001;51.674;7.868;2022-09-12T10:32:06;29.40;1.00
9925;DHT22;5001;51.674;7.868;2022-09-12T10:34:37;27.90;1.00
9925;DHT22;5001;51.674;7.868;2022-09-12T10:37:07;28.30;1.00
9925;DHT22;5001;51.674;7.868;2022-09-12T10:39:36;29.10;1.00
9925;DHT22;5001;51.674;7.868;2022-09-12T10:42:04;30.30;1.00
9925;DHT22;5001;51.674;7.868;2022-09-12T10:44:33;32.70;1.00
9925;DHT22;5001;51.674;7.868;2022-09-12T10:47:19;30.80;1.00
9925;DHT22;5001;51.674;7.868;2022-09-12T10:49:47;32.60;1.00
9925;DHT22;5001;51.674;7.868;2022-09-12T10:52:23;32.70;1.00
9925;DHT22;5001;51.674;7.868;2022-09-12T10:54:51;32.10;1.00
9925;DHT22;5001;51.674;7.868;2022-09-12T10:57:47;33.10;1.00
9925;DHT22;5001;51.674;7.868;2022-09-12T11:00:17;31.80;1.00
9925;DHT22;5001;51.674;7.868;2022-09-12T11:03:17;28.80;1.00
9925;DHT22;5001;51.674;7.868;2022-09-12T11:05:54;29.70;1.00
9925;DHT22;5001;51.674;7.868;2022-09-12T11:14:03;31.30;1.00
9925;DHT22;5001;51.674;7.868;2022-09-12T11:27:47;30.90;1.00
9925;DHT22;5001;51.674;7.868;2022-09-12T11:30:17;29.00;1.00
9925;DHT22;5001;51.674;7.868;2022-09-12T11:33:09;30.20;1.00
9925;DHT22;5001;51.674;7.868;2022-09-12T11:35:49;32.40;1.00
9925;DHT22;5001;51.674;7.868;2022-09-12T11:39:01;32.60;1.00
9925;DHT22;5001;51.674;7.868;2022-09-12T11:41:33;29.00;1.00
9925;DHT22;5001;51.674;7.868;2022-09-12T11:44:09;29.30;1.00
9925;DHT22;5001;51.674;7.868;2022-09-12T11:46:39;27.40;1.00
9925;DHT22;5001;51.674;7.868;2022-09-12T11:51:59;26.30;1.00
9925;DHT22;5001;51.674;7.868;2022-09-12T11:57:30;26.80;1.00
9925;DHT22;5001;51.674;7.868;2022-09-12T12:00:15;29.10;1.00
9925;DHT22;5001;51.674;7.868;2022-09-12T12:03:07;29.50;1.00
9925;DHT22;5001;51.674;7.868;2022-09-12T12:08:37;28.00;1.00
9925;DHT22;5001;51.674;7.868;2022-09-12T12:11:06;27.30;1.00
9925;DHT22;5001;51.674;7.868;2022-09-12T12:13:47;28.20;1.00
9925;DHT22;5001;51.674;7.868;2022-09-12T12:18:56;28.90;1.00
9925;DHT22;5001;51.674;7.868;2022-09-12T12:26:52;28.00;1.00
9925;DHT22;5001;51.674;7.868;2022-09-12T12:34:42;26.70;1.00
9925;DHT22;5001;51.674;7.868;2022-09-12T12:45:43;28.80;1.00
9925;DHT22;5001;51.674;7.868;2022-09-12T12:47:52;28.20;1.00
9925;DHT22;5001;51.674;7.868;2022-09-12T12:50:26;27.50;1.00
9925;DHT22;5001;51.674;7.868;2022-09-12T12:55:30;26.10;1.00
9925;DHT22;5001;51.674;7.868;2022-09-12T12:57:59;26.20;1.00
9925;DHT22;5001;51.674;7.868;2022-09-12T13:00:34;26.60;1.00
9925;DHT22;5001;51.674;7.868;2022-09-12T13:05:51;25.50;1.00
9925;DHT22;5001;51.674;7.868;2022-09-12T13:11:00;26.70;1.00
9925;DHT22;5001;51.674;7.868;2022-09-12T13:14:02;26.50;1.00
9925;DHT22;5001;51.674;7.868;2022-09-12T13:16:38;26.00;1.00
9925;DHT22;5001;51.674;7.868;2022-09-12T13:19:20;25.70;1.00
9925;DHT22;5001;51.674;7.868;2022-09-12T13:21:56;25.90;1.00
9925;DHT22;5001;51.674;7.868;2022-09-12T13:24:25;25.40;1.00
9925;DHT22;5001;51.674;7.868;2022-09-12T13:26:52;24.60;1.00
9925;DHT22;5001;51.674;7.868;2022-09-12T13:29:21;24.60;1.00
9925;DHT22;5001;51.674;7.868;2022-09-12T13:31:58;24.70;1.00
9925;DHT22;5001;51.674;7.868;2022-09-12T13:34:30;25.00;1.00
9925;DHT22;5001;51.674;7.868;2022-09-12T13:42:37;25.60;1.00
9925;DHT22;5001;51.674;7.868;2022-09-12T13:47:50;25.40;1.00
9925;DHT22;5001;51.674;7.868;2022-09-12T13:50:29;25.30;1.00
9925;DHT22;5001;51.674;7.868;2022-09-12T13:53:00;25.40;1.00
9925;DHT22;5001;51.674;7.868;2022-09-12T13:55:31;25.40;1.00
9925;DHT22;5001;51.674;7.868;2022-09-12T13:58:04;25.60;1.00
9925;DHT22;5001;51.674;7.868;2022-09-12T14:00:32;25.80;1.00
9925;DHT22;5001;51.674;7.868;2022-09-12T14:03:01;26.10;1.00
9925;DHT22;5001;51.674;7.868;2022-09-12T14:05:57;26.20;1.00
9925;DHT22;5001;51.674;7.868;2022-09-12T14:08:24;25.60;1.00
9925;DHT22;5001;51.674;7.868;2022-09-12T14:10:50;25.60;1.00
9925;DHT22;5001;51.674;7.868;2022-09-12T14:13:23;25.70;1.00
9925;DHT22;5001;51.674;7.868;2022-09-12T14:15:53;25.60;1.00
9925;DHT22;5001;51.674;7.868;2022-09-12T14:18:29;25.50;1.00
9925;DHT22;5001;51.674;7.868;2022-09-12T14:21:10;25.60;1.00
9925;DHT22;5001;51.674;7.868;2022-09-12T14:23:44;25.80;1.00
9925;DHT22;5001;51.674;7.868;2022-09-12T14:26:13;25.50;1.00
9925;DHT22;5001;51.674;7.868;2022-09-12T14:28:44;25.60;1.00
9925;DHT22;5001;51.674;7.868;2022-09-12T14:31:24;26.00;1.00
9925;DHT22;5001;51.674;7.868;2022-09-12T14:34:17;25.80;1.00
9925;DHT22;5001;51.674;7.868;2022-09-12T14:41:45;25.50;1.00
9925;DHT22;5001;51.674;7.868;2022-09-12T14:44:18;25.20;1.00
9925;DHT22;5001;51.674;7.868;2022-09-12T14:46:47;25.50;1.00
9925;DHT22;5001;51.674;7.868;2022-09-12T14:49:20;25.70;1.00
9925;DHT22;5001;51.674;7.868;2022-09-12T14:51:55;25.80;1.00
9925;DHT22;5001;51.674;7.868;2022-09-12T14:57:02;25.50;1.00
9925;DHT22;5001;51.674;7.868;2022-09-12T14:59:39;25.60;1.00
9925;DHT22;5001;51.674;7.868;2022-09-12T15:04:41;25.20;1.00
9925;DHT22;5001;51.674;7.868;2022-09-12T15:07:27;25.40;1.00
9925;DHT22;5001;51.674;7.868;2022-09-12T15:09:56;25.30;1.00
9925;DHT22;5001;51.674;7.868;2022-09-12T15:12:23;25.30;1.00
9925;DHT22;5001;51.674;7.868;2022-09-12T15:14:50;25.30;1.00
9925;DHT22;5001;51.674;7.868;2022-09-12T15:17:17;25.20;1.00
9925;DHT22;5001;51.674;7.868;2022-09-12T15:19:44;25.30;1.00
9925;DHT22;5001;51.674;7.868;2022-09-12T15:22:14;25.40;1.00
9925;DHT22;5001;51.674;7.868;2022-09-12T15:24:41;25.30;1.00
9925;DHT22;5001;51.674;7.868;2022-09-12T15:27:10;25.50;1.00
9925;DHT22;5001;51.674;7.868;2022-09-12T15:29:38;25.30;1.00
9925;DHT22;5001;51.674;7.868;2022-09-12T15:32:05;25.20;1.00
9925;DHT22;5001;51.674;7.868;2022-09-12T15:34:32;25.30;1.00
9925;DHT22;5001;51.674;7.868;2022-09-12T15:36:59;25.20;1.00
9925;DHT22;5001;51.674;7.868;2022-09-12T15:39:26;25.10;1.00
9925;DHT22;5001;51.674;7.868;2022-09-12T15:41:53;25.00;1.00
9925;DHT22;5001;51.674;7.868;2022-09-12T15:44:20;24.80;1.00
9925;DHT22;5001;51.674;7.868;2022-09-12T15:46:49;24.60;1.00
9925;DHT22;5001;51.674;7.868;2022-09-12T15:49:16;24.80;1.00
9925;DHT22;5001;51.674;7.868;2022-09-12T15:51:43;24.90;1.00
9925;DHT22;5001;51.674;7.868;2022-09-12T15:54:12;25.10;1.00
9925;DHT22;5001;51.674;7.868;2022-09-12T15:56:40;25.10;1.00
9925;DHT22;5001;51.674;7.868;2022-09-12T15:59:09;25.10;1.00
9925;DHT22;5001;51.674;7.868;2022-09-12T16:01:36;25.00;1.00
9925;DHT22;5001;51.674;7.868;2022-09-12T16:04:22;24.90;1.00
9925;DHT22;5001;51.674;7.868;2022-09-12T16:06:51;25.00;1.00
9925;DHT22;5001;51.674;7.868;2022-09-12T16:09:22;24.80;1.00
9925;DHT22;5001;51.674;7.868;2022-09-12T16:11:49;24.70;1.00
9925;DHT22;5001;51.674;7.868;2022-09-12T16:14:19;24.80;1.00
9925;DHT22;5001;51.674;7.868;2022-09-12T16:16:53;24.70;1.00
9925;DHT22;5001;51.674;7.868;2022-09-12T16:19:22;24.80;1.00
9925;DHT22;5001;51.674;7.868;2022-09-12T16:21:49;24.70;1.00
9925;DHT22;5001;51.674;7.868;2022-09-12T16:24:16;24.60;1.00
9925;DHT22;5001;51.674;7.868;2022-09-12T16:26:48;24.60;1.00
9925;DHT22;5001;51.674;7.868;2022-09-12T16:29:15;24.50;1.00
9925;DHT22;5001;51.674;7.868;2022-09-12T16:31:42;24.40;1.00
9925;DHT22;5001;51.674;7.868;2022-09-12T16:34:10;24.40;1.00
9925;DHT22;5001;51.674;7.868;2022-09-12T16:36:37;24.40;1.00
9925;DHT22;5001;51.674;7.868;2022-09-12T16:39:04;24.40;1.00
9925;DHT22;5001;51.674;7.868;2022-09-12T16:41:31;24.30;1.00
9925;DHT22;5001;51.674;7.868;2022-09-12T16:43:58;24.30;1.00
9925;DHT22;5001;51.674;7.868;2022-09-12T16:46:26;24.20;1.00
9925;DHT22;5001;51.674;7.868;2022-09-12T16:48:56;24.20;1.00
9925;DHT22;5001;51.674;7.868;2022-09-12T16:51:33;24.10;1.00
9925;DHT22;5001;51.674;7.868;2022-09-12T16:54:01;24.00;1.00
9925;DHT22;5001;51.674;7.868;2022-09-12T16:56:28;24.00;1.00
9925;DHT22;5001;51.674;7.868;2022-09-12T16:58:55;24.00;1.00
9925;DHT22;5001;51.674;7.868;2022-09-12T17:01:26;23.90;1.00
9925;DHT22;5001;51.674;7.868;2022-09-12T17:03:57;23.90;1.00
9925;DHT22;5001;51.674;7.868;2022-09-12T17:06:27;23.90;1.00
9925;DHT22;5001;51.674;7.868;2022-09-12T17:08:58;23.90;1.00
9925;DHT22;5001;51.674;7.868;2022-09-12T17:11:35;23.90;1.00
9925;DHT22;5001;51.674;7.868;2022-09-12T17:14:04;23.80;1.00
9925;DHT22;5001;51.674;7.868;2022-09-12T17:16:37;23.70;1.00
9925;DHT22;5001;51.674;7.868;2022-09-12T17:19:05;23.60;1.00
9925;DHT22;5001;51.674;7.868;2022-09-12T17:21:38;23.50;1.00
9925;DHT22;5001;51.674;7.868;2022-09-12T17:24:09;23.40;1.00
9925;DHT22;5001;51.674;7.868;2022-09-12T17:26:36;23.20;1.00
9925;DHT22;5001;51.674;7.868;2022-09-12T17:29:03;23.00;1.00
9925;DHT22;5001;51.674;7.868;2022-09-12T17:31:30;22.90;1.00
9925;DHT22;5001;51.674;7.868;2022-09-12T17:34:01;22.80;1.00
9925;DHT22;5001;51.674;7.868;2022-09-12T17:36:33;22.70;1.00
9925;DHT22;5001;51.674;7.868;2022-09-12T17:39:02;22.60;1.00
9925;DHT22;5001;51.674;7.868;2022-09-12T17:41:30;22.50;1.00
9925;DHT22;5001;51.674;7.868;2022-09-12T17:43:59;22.40;1.00
9925;DHT22;5001;51.674;7.868;2022-09-12T17:46:33;22.20;1.00
9925;DHT22;5001;51.674;7.868;2022-09-12T17:49:07;22.00;1.00
9925;DHT22;5001;51.674;7.868;2022-09-12T17:51:35;21.70;11.10
9925;DHT22;5001;51.674;7.868;2022-09-12T17:54:10;21.50;40.00
9925;DHT22;5001;51.674;7.868;2022-09-12T17:56:42;21.40;75.70
9925;DHT22;5001;51.674;7.868;2022-09-12T17:59:13;21.30;92.50
9925;DHT22;5001;51.674;7.868;2022-09-12T18:01:41;21.20;99.90
9925;DHT22;5001;51.674;7.868;2022-09-12T18:04:26;21.20;99.90
9925;DHT22;5001;51.674;7.868;2022-09-12T18:06:57;21.20;99.90
9925;DHT22;5001;51.674;7.868;2022-09-12T18:09:30;21.10;99.90
9925;DHT22;5001;51.674;7.868;2022-09-12T18:11:58;21.00;99.90
9925;DHT22;5001;51.674;7.868;2022-09-12T18:14:26;20.80;99.90
9925;DHT22;5001;51.674;7.868;2022-09-12T18:16:53;20.70;99.90
9925;DHT22;5001;51.674;7.868;2022-09-12T18:19:23;20.50;99.90
9925;DHT22;5001;51.674;7.868;2022-09-12T18:21:50;20.50;99.90
9925;DHT22;5001;51.674;7.868;2022-09-12T18:24:17;20.40;99.90
9925;DHT22;5001;51.674;7.868;2022-09-12T18:26:44;20.40;99.90
9925;DHT22;5001;51.674;7.868;2022-09-12T18:29:12;20.40;99.90
9925;DHT22;5001;51.674;7.868;2022-09-12T18:31:43;20.30;99.90
9925;DHT22;5001;51.674;7.868;2022-09-12T18:34:11;20.20;99.90
9925;DHT22;5001;51.674;7.868;2022-09-12T18:36:45;20.20;99.90
9925;DHT22;5001;51.674;7.868;2022-09-12T18:39:12;20.20;99.90
9925;DHT22;5001;51.674;7.868;2022-09-12T18:41:40;20.10;99.90
9925;DHT22;5001;51.674;7.868;2022-09-12T18:44:09;20.10;99.90
9925;DHT22;5001;51.674;7.868;2022-09-12T18:46:41;19.90;99.90
9925;DHT22;5001;51.674;7.868;2022-09-12T18:49:08;19.90;99.90
9925;DHT22;5001;51.674;7.868;2022-09-12T18:51:36;19.80;99.90
9925;DHT22;5001;51.674;7.868;2022-09-12T18:54:05;19.70;99.90
9925;DHT22;5001;51.674;7.868;2022-09-12T18:56:35;19.60;99.90
9925;DHT22;5001;51.674;7.868;2022-09-12T18:59:06;19.50;1.00
9925;DHT22;5001;51.674;7.868;2022-09-12T19:01:37;19.50;99.90